Pelagia — PGRQ — position and weather

sailwx.info

Track history (hours):
 
Tides and Currents Weather Stations Pressure Air Temp Water Temp Dewpoint Dewpoint Depression Visibility Wind Speed Wind Dir Waves Ship Positions

Oceanographic research ship Pelagia (Netherlands)

Detailed information on ship capabilities available from University of Delaware's Ocean Information Center and ARCUS's ALIAS (Arctic Logistics Information and Support) project.

Last reported at 2017-May-12 20:41 UTC. Time now 2017-May-25 03:01 UTC.
Position N 52°55' W 009°38'.
Warning: this ship's position is 12 days out of date.

Length 66 m; beam 13 m.

Type: Other ship. MMSI: 244925000.

Date/timePositionNaut miles runAvg speedWind from/ knotsBaromVisibWave heightAir tempDewpointWater temp
2017-May-12 20:41N 52°55' W 009°38'210.3
2017-May-12 20:28N 52°57' W 009°35'710.7
2017-May-12 19:48N 53°02' W 009°28'310.8
2017-May-12 19:30N 53°05' W 009°25'13 0.4
2017-May-11 12:08N 53°11' W 009°44'8 8.5
2017-May-11 11:11N 53°11' W 009°57'2 8.7
2017-May-11 10:58N 53°12' W 010°00'4 8.5
2017-May-11 10:28N 53°14' W 010°06'6 8.7
2017-May-11 09:50N 53°17' W 010°14'5 9.0
2017-May-11 09:20N 53°20' W 010°20'44 9.8
2017-May-11 04:52N 53°43' W 011°23'  
Track history (hours):
 
Tides and Currents Weather Stations Pressure Air Temp Water Temp Dewpoint Dewpoint Depression Visibility Wind Speed Wind Dir Waves Ship Positions

Oceanographic research ship Pelagia (Netherlands)

Detailed information on ship capabilities available from University of Delaware's Ocean Information Center and ARCUS's ALIAS (Arctic Logistics Information and Support) project.

Last reported at 2017-May-12 20:41 UTC. Time now 2017-May-25 03:01 UTC.
Position N 52°55' W 009°38'.
Warning: this ship's position is 12 days out of date.

Length 66 m; beam 13 m.

Type: Other ship. MMSI: 244925000.

Date/timePositionNaut miles runAvg speedWind from/ knotsBaromVisibWave heightAir tempDewpointWater temp
2017-May-12 20:41N 52°55' W 009°38'210.3
2017-May-12 20:28N 52°57' W 009°35'710.7
2017-May-12 19:48N 53°02' W 009°28'310.8
2017-May-12 19:30N 53°05' W 009°25'13 0.4
2017-May-11 12:08N 53°11' W 009°44'8 8.5
2017-May-11 11:11N 53°11' W 009°57'2 8.7
2017-May-11 10:58N 53°12' W 010°00'4 8.5
2017-May-11 10:28N 53°14' W 010°06'6 8.7
2017-May-11 09:50N 53°17' W 010°14'5 9.0
2017-May-11 09:20N 53°20' W 010°20'44 9.8
2017-May-11 04:52N 53°43' W 011°23'  

Dump ship's entire track history